• Join FlightAware (Why Join?)
  • Login
  • US Flag 
10:38PM EDT


 

Airport Tracker/Info


-or-


 

Live Flight TrackerFlight Track Log ✈ ASQ4577 ✈ 16-May-2013 ✈ KDEN - KCLE

Flight Track Log - Related Links

Times and Time Zones

All times are in EDT time to prevent confusion due to time zone crossing. See the ASQ4577 flight status page for this flight to view local times or setup timezone preferences in your user account.

Time Position Orientation Groundspeed Altitude Reporting Facility
EDT Latitude Longitude Course Direction KTS MPH feet Rate Location/Type
03:25PM 39.8833 -104.6000 72° East 192 221 6,300  Level Denver TRACON
03:26PM 39.8833 -104.5167 90° East 244 281 7,600 1,320 Climbing Denver TRACON
03:27PM 39.8667 -104.4000 101° East 290 334 9,100 1,680 Climbing Denver TRACON
03:28PM 39.8739 -104.3672 74° East 284 327 10,000 1,440 Climbing Denver Center
03:29PM 39.8614 -104.2450 98° East 321 369 11,200 1,200 Climbing Denver Center
03:30PM 39.8283 -104.1261 110° East 350 403 12,600 1,440 Climbing Denver Center
03:31PM 39.8822 -103.7379 72° East  Level FlightAware Approximate
03:31PM 39.7956 -104.0031 109° East 360 414 14,200  Level Denver Center
03:32PM 39.7675 -103.8636 105° East 371 427 15,900 1,440 Climbing Denver Center
03:33PM 39.7706 -103.7306 88° East 376 433 17,200 1,440 Climbing Denver Center
03:34PM 39.7639 -103.5794 93° East 382 440 18,900 1,620 Climbing Denver Center
03:35PM 39.7392 -103.4494 104° East 386 444 20,600 1,500 Climbing Denver Center
03:36PM 39.7128 -103.3058 103° East 384 442 22,000 1,200 Climbing Denver Center
03:37PM 39.6933 -103.1706 101° East 395 455 23,100 960 Climbing Denver Center
03:38PM 39.6717 -103.0089 100° East 408 470 24,100 1,080 Climbing Denver Center
03:39PM 39.6517 -102.8669 100° East 418 481 25,400 1,320 Climbing Denver Center
03:40PM 39.6325 -102.6997 98° East 418 481 26,900 1,320 Climbing Denver Center
03:41PM 39.6183 -102.5572 97° East 416 479 28,200 1,200 Climbing Denver Center
03:42PM 39.6075 -102.4181 96° East 409 471 29,500 1,260 Climbing Denver Center
03:43PM 39.5983 -102.2578 94° East 403 464 30,800 720 Climbing Denver Center
03:44PM 39.5908 -102.1169 94° East 410 472 31,000 60 Climbing Denver Center
03:45PM 39.5892 -101.9381 91° East 444 511 31,000  Level Denver Center
03:46PM 39.5953 -101.7769 87° East 466 536 31,000  Level Denver Center
03:47PM 39.6044 -101.5811 86° East 484 557 31,000  Level Denver Center
03:48PM 39.6275 -101.4139 80° East 492 566 31,000 240 Level Denver Center
03:49PM 39.6736 -101.2308 72° East 481 554 31,500 960 Climbing Denver Center
03:50PM 39.7094 -101.0744 73° East 475 547 33,000 1,500 Climbing Denver Center
03:51PM 39.7492 -100.9039 73° East 448 516 34,700 960 Climbing Denver Center
03:52PM 39.7822 -100.7617 73° East 435 501 35,000 120 Climbing Denver Center
03:53PM 39.8231 -100.5864 73° East 452 520 35,000  Level Denver Center
03:54PM 39.8592 -100.4289 73° East 471 542 35,000  Level Denver Center
03:55PM 39.8997 -100.2497 74° East 482 555 35,000  Level Denver Center
03:56PM 39.9378 -100.0803 74° East 486 559 35,000  Level Denver Center
03:58PM 39.9750 -99.9136 74° East 481 554 35,000  Level Denver Center
03:59PM 40.0117 -99.7481 74° East 478 550 35,000  Level Denver Center
04:00PM 40.0556 -99.5511 74° East 474 545 35,000  Level Denver Center
04:01PM 40.0908 -99.3878 74° East 471 542 35,000  Level Denver Center
04:02PM 40.1281 -99.2219 74° East 475 547 35,000  Level Denver Center
04:03PM 40.1633 -99.0544 75° East 479 551 35,000  Level Denver Center
04:04PM 40.2000 -98.8878 74° East 479 551 35,000  Level Denver Center
04:05PM 40.2417 -98.6908 74° East 477 549 35,000  Level Minneapolis Center
04:06PM 40.2758 -98.5264 75° East 474 545 35,000  Level Minneapolis Center
04:07PM 40.3103 -98.3636 74° East 470 541 35,000  Level Minneapolis Center
04:08PM 40.3503 -98.1686 75° East 466 536 35,000  Level Minneapolis Center
04:09PM 40.3833 -98.0069 75° East 463 533 35,000  Level Minneapolis Center
04:10PM 40.4169 -97.8456 75° East 461 531 35,000  Level Minneapolis Center
04:11PM 40.4481 -97.6839 76° East 460 529 35,000  Level Minneapolis Center
04:12PM 40.4803 -97.5222 75° East 459 528 35,000  Level Minneapolis Center
04:13PM 40.5133 -97.3594 75° East 461 531 35,000  Level Minneapolis Center
04:14PM 40.5478 -97.1903 75° East 467 537 35,000  Level Minneapolis Center
04:15PM 40.5858 -96.9961 75° East 461 531 35,000  Level Minneapolis Center
04:16PM 40.6164 -96.8347 76° East 457 526 35,000  Level Minneapolis Center
04:17PM 40.6478 -96.6731 76° East 458 527 35,000  Level Minneapolis Center
04:18PM 40.6781 -96.5106 76° East 459 528 35,000  Level Minneapolis Center
04:19PM 40.7089 -96.3475 76° East 460 529 35,000  Level Minneapolis Center
04:20PM 40.7456 -96.1506 76° East 462 532 35,000  Level Minneapolis Center
04:21PM 40.7764 -95.9869 76° East 463 533 35,000  Level Minneapolis Center
04:22PM 40.8072 -95.8231 76° East 463 533 35,000  Level Minneapolis Center
04:24PM 40.8372 -95.6567 77° East 467 537 35,000  Level Minneapolis Center
04:25PM 40.8678 -95.4908 76° East 469 540 35,000  Level Minneapolis Center
04:26PM 40.9025 -95.2978 77° East 458 527 35,000  Level Minneapolis Center
04:27PM 40.9306 -95.1400 77° East 447 514 35,000  Level Minneapolis Center
04:28PM 40.9589 -94.9781 77° East 450 518 35,000  Level Minneapolis Center
04:29PM 40.9872 -94.8156 77° East 454 522 35,000  Level Minneapolis Center
04:30PM 41.0144 -94.6564 77° East 449 517 35,000  Level Minneapolis Center
04:31PM 41.0436 -94.4825 77° East 447 514 35,000  Level Minneapolis Center
04:32PM 41.0711 -94.3225 77° East 448 516 35,000  Level Minneapolis Center
04:33PM 41.0975 -94.1581 78° East 455 524 35,000  Level Minneapolis Center
04:34PM 41.1311 -93.9597 77° East 460 529 35,000  Level Minneapolis Center
04:35PM 41.1592 -93.7953 77° East 461 531 35,000  Level Minneapolis Center
04:36PM 41.1847 -93.6331 78° East 455 524 35,000  Level Minneapolis Center
04:37PM 41.2125 -93.4692 77° East 455 524 35,000  Level Minneapolis Center
04:38PM 41.2386 -93.3053 78° East 457 526 35,000  Level Minneapolis Center
04:39PM 41.2650 -93.1419 78° East 456 525 35,000  Level Minneapolis Center
04:40PM 41.2967 -92.9394 78° East 463 533 35,000  Level Minneapolis Center
04:41PM 41.3228 -92.7697 78° East 468 539 35,000  Level Minneapolis Center
04:42PM 41.3483 -92.6003 79° East 470 541 35,000  Level Minneapolis Center
04:43PM 41.3650 -92.4975 78° East 470 541 35,000  Level Chicago Center
04:44PM 41.3917 -92.3167 79° East 461 531 35,000  Level Chicago Center
04:45PM 41.4161 -92.1508 79° East 462 532 35,000  Level Chicago Center
04:46PM 41.4411 -91.9839 79° East 465 535 35,000  Level Chicago Center
04:47PM 41.4658 -91.8142 79° East 471 542 35,000  Level Chicago Center
04:48PM 41.4961 -91.6089 79° East 477 549 35,000  Level Chicago Center
04:49PM 41.5203 -91.4378 79° East 476 548 35,000  Level Chicago Center
04:50PM 41.5444 -91.2681 79° East 472 543 35,000  Level Chicago Center
04:51PM 41.5686 -91.0975 79° East 474 545 35,000  Level Chicago Center
04:52PM 41.5917 -90.9244 80° East 478 550 35,000  Level Chicago Center
04:53PM 41.6200 -90.7186 80° East 477 549 35,000  Level Chicago Center
04:54PM 41.6419 -90.5550 80° East 471 542 35,000  Level Chicago Center
04:55PM 41.6647 -90.3847 80° East 469 540 35,000  Level Chicago Center
04:56PM 41.6872 -90.2133 80° East 466 536 35,000  Level Chicago Center
04:57PM 41.7097 -90.0375 80° East 472 543 35,000  Level Chicago Center
04:58PM 41.7367 -89.8281 80° East 474 545 35,000  Level Chicago Center
04:59PM 41.7592 -89.6519 80° East 477 549 35,000  Level Chicago Center
05:00PM 41.7811 -89.4831 80° East 476 548 35,000  Level Chicago Center
05:01PM 41.8011 -89.3111 81° East 471 542 35,000  Level Chicago Center
05:02PM 41.8256 -89.1033 81° East 472 543 35,000  Level Chicago Center
05:03PM 41.8472 -88.9300 80° East 471 542 35,000  Level Chicago Center
05:04PM 41.8672 -88.7556 81° East 474 545 35,000  Level Chicago Center
05:05PM 41.8872 -88.5819 81° East 473 544 35,000  Level Chicago Center
05:07PM 41.9075 -88.4100 81° East 467 537 35,000  Level Chicago Center
05:08PM 41.9264 -88.2406 81° East 460 529 35,000  Level Chicago Center
05:09PM 41.9492 -88.0344 81° East 464 534 35,000  Level Chicago Center
05:10PM 41.9683 -87.8603 82° East 468 539 35,000  Level Chicago Center
05:11PM 41.9878 -87.6850 81° East 473 544 35,000  Level Chicago Center
05:12PM 42.0056 -87.5111 82° East 469 540 35,000  Level Chicago Center
05:13PM 42.0225 -87.3406 82° East 464 534 35,000  Level Chicago Center
05:14PM 42.0408 -87.1683 82° East 465 535 35,000  Level Chicago Center
05:15PM 42.0631 -86.9581 82° East 474 545 35,000 -240 Level Chicago Center
05:16PM 42.0800 -86.7861 82° East 468 539 34,600 -540 Descending Chicago Center
05:17PM 42.0947 -86.6336 83° East 466 536 34,000 -300 Descending Chicago Center
05:18PM 42.1156 -86.4244 82° East 469 540 34,000  Level Chicago Center
05:19PM 42.1328 -86.2472 82° East 474 545 34,000  Level Chicago Center
05:20PM 42.1431 -86.0683 86° East 477 549 34,000  Level Chicago Center
05:21PM 42.1364 -85.8700 93° East 476 548 34,000  Level Chicago Center
05:22PM 42.1319 -85.6919 92° East 478 550 34,000 -420 Level Chicago Center
05:23PM 42.1269 -85.5128 92° East 482 555 33,200 -480 Descending Chicago Center
05:24PM 42.1233 -85.3094 91° East 474 545 33,000 -120 Descending Cleveland Center
05:25PM 42.1200 -85.1328 91° East 474 545 33,000  Level Cleveland Center
05:26PM 42.1144 -84.9531 92° East 474 545 33,000  Level Cleveland Center
05:27PM 42.1061 -84.7817 94° East 480 552 33,000  Level Cleveland Center
05:28PM 42.0981 -84.5992 93° East 480 552 33,000  Level Cleveland Center
05:29PM 42.0917 -84.4197 93° East 480 552 33,000 -900 Level Cleveland Center
05:30PM 42.0792 -84.2258 95° East 480 552 31,300 -2,280 Descending Cleveland Center
05:31PM 42.0722 -84.0492 93° East 480 552 28,500 -2,760 Descending Cleveland Center
05:32PM 42.0650 -83.8725 93° East 480 552 25,800 -2,220 Descending Cleveland Center
05:33PM 42.0572 -83.7042 94° East 475 547 24,100 -1,320 Descending Cleveland Center
05:34PM 42.0492 -83.5361 94° East 464 534 23,200 -900 Descending Cleveland Center
05:35PM 42.0367 -83.3706 96° East 447 514 22,300 -960 Descending Cleveland Center
05:36PM 42.0217 -83.2078 97° East 447 514 21,300 -1,020 Descending Cleveland Center
05:37PM 42.0067 -83.0422 97° East 447 514 20,300 -960 Descending Cleveland Center
05:38PM 41.9911 -82.8825 97° East 447 514 19,400 -720 Descending Cleveland Center
05:39PM 41.9756 -82.7197 97° East 428 493 18,900 -1,440 Descending Cleveland Center
05:40PM 41.9594 -82.5714 98° East 425 489 16,600 -2,640 Descending Cleveland Center
05:41PM 41.9239 -82.4475 111° Southeast 409 471 13,900 -2,700 Descending Cleveland Center
05:42PM 41.8864 -82.3236 112° Southeast 398 458 11,800 -1,800 Descending Cleveland Center
05:43PM 41.8406 -82.1803 113° Southeast 336 387 10,300 -1,140 Descending Cleveland Center
05:44PM 41.7683 -82.1089 144° Southeast 308 354 9,300 -960 Descending Cleveland Center
05:45PM 41.7006 -82.0403 143° Southeast 312 359 8,400 -1,080 Descending Cleveland Center
05:46PM 41.6347 -81.9750 143° Southeast 305 351 7,300 -720 Descending Cleveland Center
05:47PM 41.6025 -81.8661 112° Southeast 282 325 6,900 -660 Descending Cleveland Center
05:48PM 41.5744 -81.7767 113° Southeast 244 281 6,000 -1,080 Descending Cleveland Center
05:49PM 41.5292 -81.7147 134° Southeast 245 282 4,800 -1,440 Descending Cleveland Center
05:50PM 41.4831 -81.7444 206° Southwest 204 235 3,000 -1,440 Descending Cleveland Center
05:51PM 41.4492 -81.7881 224° Southwest 163 188 1,900 -1,020 Descending Cleveland Center
05:53PM 41.4175 -81.8319 226° Southwest 147 169 1,000 -840 Descending Cleveland Center
05:55PM 41.4000 -81.8500 224° Southwest  Level FlightAware Approximate